sensor_id;sensor_type;location;lat;lon;timestamp;P1;durP1;ratioP1;P2;durP2;ratioP2
31182;SDS011;17813;0.000;0.000;2022-10-16T00:01:37;0.70;;;0.70;;
31182;SDS011;17813;0.000;0.000;2022-10-16T00:04:04;0.87;;;0.80;;
31182;SDS011;17813;0.000;0.000;2022-10-16T00:06:34;2.37;;;0.70;;
31182;SDS011;17813;0.000;0.000;2022-10-16T00:09:01;0.80;;;0.67;;
31182;SDS011;17813;0.000;0.000;2022-10-16T00:11:30;0.57;;;0.57;;
31182;SDS011;17813;0.000;0.000;2022-10-16T00:14:00;0.83;;;0.67;;
31182;SDS011;17813;0.000;0.000;2022-10-16T00:16:29;0.77;;;0.70;;
31182;SDS011;17813;0.000;0.000;2022-10-16T00:18:56;0.43;;;0.40;;
31182;SDS011;17813;0.000;0.000;2022-10-16T00:21:25;0.50;;;0.50;;
31182;SDS011;17813;0.000;0.000;2022-10-16T00:24:01;0.70;;;0.60;;
31182;SDS011;17813;0.000;0.000;2022-10-16T00:26:32;0.63;;;0.50;;
31182;SDS011;17813;0.000;0.000;2022-10-16T00:29:03;0.70;;;0.70;;
31182;SDS011;17813;0.000;0.000;2022-10-16T00:31:32;0.87;;;0.60;;
31182;SDS011;17813;0.000;0.000;2022-10-16T00:33:59;1.03;;;0.90;;
31182;SDS011;17813;0.000;0.000;2022-10-16T00:36:27;2.37;;;1.17;;
31182;SDS011;17813;0.000;0.000;2022-10-16T00:38:55;3.10;;;1.33;;
31182;SDS011;17813;0.000;0.000;2022-10-16T00:41:29;2.10;;;1.13;;
31182;SDS011;17813;0.000;0.000;2022-10-16T00:43:57;2.27;;;1.07;;
31182;SDS011;17813;0.000;0.000;2022-10-16T00:49:13;0.57;;;0.50;;
31182;SDS011;17813;0.000;0.000;2022-10-16T00:51:58;1.53;;;0.60;;
31182;SDS011;17813;0.000;0.000;2022-10-16T00:54:31;0.50;;;0.50;;
31182;SDS011;17813;0.000;0.000;2022-10-16T00:57:00;1.73;;;0.87;;
31182;SDS011;17813;0.000;0.000;2022-10-16T00:59:32;0.80;;;0.80;;
31182;SDS011;17813;0.000;0.000;2022-10-16T01:02:02;4.40;;;0.90;;
31182;SDS011;17813;0.000;0.000;2022-10-16T01:04:34;1.40;;;0.90;;
31182;SDS011;17813;0.000;0.000;2022-10-16T01:10:02;1.73;;;0.90;;
31182;SDS011;17813;0.000;0.000;2022-10-16T01:15:30;0.73;;;0.63;;
31182;SDS011;17813;0.000;0.000;2022-10-16T01:18:25;0.70;;;0.70;;
31182;SDS011;17813;0.000;0.000;2022-10-16T01:21:04;1.27;;;1.00;;
31182;SDS011;17813;0.000;0.000;2022-10-16T01:26:42;1.70;;;0.90;;
31182;SDS011;17813;0.000;0.000;2022-10-16T01:29:34;1.03;;;0.70;;
31182;SDS011;17813;0.000;0.000;2022-10-16T01:32:14;2.10;;;1.00;;
31182;SDS011;17813;0.000;0.000;2022-10-16T01:35:21;2.27;;;1.00;;
31182;SDS011;17813;0.000;0.000;2022-10-16T01:37:57;1.27;;;0.83;;
31182;SDS011;17813;0.000;0.000;2022-10-16T01:40:39;1.57;;;1.30;;
31182;SDS011;17813;0.000;0.000;2022-10-16T01:43:12;3.57;;;1.10;;
31182;SDS011;17813;0.000;0.000;2022-10-16T01:45:47;1.27;;;1.10;;
31182;SDS011;17813;0.000;0.000;2022-10-16T01:48:17;1.43;;;1.20;;
31182;SDS011;17813;0.000;0.000;2022-10-16T01:50:50;3.23;;;1.40;;
31182;SDS011;17813;0.000;0.000;2022-10-16T01:53:54;3.23;;;1.33;;
31182;SDS011;17813;0.000;0.000;2022-10-16T01:56:23;2.83;;;1.30;;
31182;SDS011;17813;0.000;0.000;2022-10-16T01:59:01;1.33;;;1.20;;
31182;SDS011;17813;0.000;0.000;2022-10-16T02:01:32;1.03;;;0.93;;
31182;SDS011;17813;0.000;0.000;2022-10-16T02:04:03;1.10;;;1.00;;
31182;SDS011;17813;0.000;0.000;2022-10-16T02:06:38;2.03;;;1.00;;
31182;SDS011;17813;0.000;0.000;2022-10-16T02:09:06;1.83;;;1.20;;
31182;SDS011;17813;0.000;0.000;2022-10-16T02:11:34;1.07;;;0.97;;
31182;SDS011;17813;0.000;0.000;2022-10-16T02:14:02;1.50;;;1.10;;
31182;SDS011;17813;0.000;0.000;2022-10-16T02:16:32;2.57;;;1.07;;
31182;SDS011;17813;0.000;0.000;2022-10-16T02:19:00;1.93;;;1.20;;
31182;SDS011;17813;0.000;0.000;2022-10-16T02:21:44;1.87;;;0.93;;
31182;SDS011;17813;0.000;0.000;2022-10-16T02:27:03;2.27;;;1.00;;
31182;SDS011;17813;0.000;0.000;2022-10-16T02:29:42;2.83;;;1.13;;
31182;SDS011;17813;0.000;0.000;2022-10-16T02:32:19;1.23;;;1.00;;
31182;SDS011;17813;0.000;0.000;2022-10-16T02:34:49;1.17;;;1.00;;
31182;SDS011;17813;0.000;0.000;2022-10-16T02:37:17;1.33;;;1.17;;
31182;SDS011;17813;0.000;0.000;2022-10-16T02:39:45;0.90;;;0.90;;
31182;SDS011;17813;0.000;0.000;2022-10-16T02:42:12;2.77;;;1.30;;
31182;SDS011;17813;0.000;0.000;2022-10-16T02:44:39;2.40;;;1.10;;
31182;SDS011;17813;0.000;0.000;2022-10-16T02:47:06;1.43;;;1.03;;
31182;SDS011;17813;0.000;0.000;2022-10-16T02:49:34;1.43;;;1.10;;
31182;SDS011;17813;0.000;0.000;2022-10-16T02:52:01;1.47;;;1.30;;
31182;SDS011;17813;0.000;0.000;2022-10-16T02:54:28;2.67;;;1.30;;
31182;SDS011;17813;0.000;0.000;2022-10-16T02:56:56;2.23;;;1.13;;
31182;SDS011;17813;0.000;0.000;2022-10-16T02:59:23;1.30;;;1.00;;
31182;SDS011;17813;0.000;0.000;2022-10-16T03:01:50;2.23;;;1.13;;
31182;SDS011;17813;0.000;0.000;2022-10-16T03:04:16;1.57;;;1.00;;
31182;SDS011;17813;0.000;0.000;2022-10-16T03:06:43;1.07;;;1.03;;
31182;SDS011;17813;0.000;0.000;2022-10-16T03:09:11;1.67;;;0.87;;
31182;SDS011;17813;0.000;0.000;2022-10-16T03:11:38;1.20;;;1.10;;
31182;SDS011;17813;0.000;0.000;2022-10-16T03:14:05;1.83;;;1.10;;
31182;SDS011;17813;0.000;0.000;2022-10-16T03:16:32;2.27;;;1.10;;
31182;SDS011;17813;0.000;0.000;2022-10-16T03:18:59;1.50;;;1.07;;
31182;SDS011;17813;0.000;0.000;2022-10-16T03:21:26;1.40;;;1.10;;
31182;SDS011;17813;0.000;0.000;2022-10-16T03:23:53;1.70;;;1.60;;
31182;SDS011;17813;0.000;0.000;2022-10-16T03:26:20;3.27;;;2.40;;
31182;SDS011;17813;0.000;0.000;2022-10-16T03:28:46;4.33;;;3.00;;
31182;SDS011;17813;0.000;0.000;2022-10-16T03:31:13;2.80;;;2.53;;
31182;SDS011;17813;0.000;0.000;2022-10-16T03:33:40;2.80;;;2.10;;
31182;SDS011;17813;0.000;0.000;2022-10-16T03:36:07;2.60;;;2.00;;
31182;SDS011;17813;0.000;0.000;2022-10-16T03:38:34;2.43;;;1.70;;
31182;SDS011;17813;0.000;0.000;2022-10-16T03:41:02;1.23;;;1.10;;
31182;SDS011;17813;0.000;0.000;2022-10-16T03:43:29;1.73;;;1.63;;
31182;SDS011;17813;0.000;0.000;2022-10-16T03:45:56;2.37;;;1.30;;
31182;SDS011;17813;0.000;0.000;2022-10-16T03:48:23;2.70;;;1.30;;
31182;SDS011;17813;0.000;0.000;2022-10-16T03:50:50;3.33;;;1.13;;
31182;SDS011;17813;0.000;0.000;2022-10-16T03:53:17;2.37;;;1.20;;
31182;SDS011;17813;0.000;0.000;2022-10-16T03:55:44;2.03;;;1.20;;
31182;SDS011;17813;0.000;0.000;2022-10-16T03:58:11;1.30;;;1.10;;
31182;SDS011;17813;0.000;0.000;2022-10-16T04:00:41;3.53;;;1.50;;
31182;SDS011;17813;0.000;0.000;2022-10-16T04:03:09;1.40;;;1.30;;
31182;SDS011;17813;0.000;0.000;2022-10-16T04:05:37;2.00;;;1.30;;
31182;SDS011;17813;0.000;0.000;2022-10-16T04:08:04;1.30;;;1.20;;
31182;SDS011;17813;0.000;0.000;2022-10-16T04:10:31;2.13;;;1.27;;
31182;SDS011;17813;0.000;0.000;2022-10-16T04:12:58;2.33;;;1.33;;
31182;SDS011;17813;0.000;0.000;2022-10-16T04:15:25;1.70;;;1.20;;
31182;SDS011;17813;0.000;0.000;2022-10-16T04:17:52;1.40;;;1.17;;
31182;SDS011;17813;0.000;0.000;2022-10-16T04:20:20;1.37;;;1.27;;
31182;SDS011;17813;0.000;0.000;2022-10-16T04:22:47;1.87;;;1.23;;
31182;SDS011;17813;0.000;0.000;2022-10-16T04:25:15;2.10;;;1.20;;
31182;SDS011;17813;0.000;0.000;2022-10-16T04:27:42;1.37;;;1.27;;
31182;SDS011;17813;0.000;0.000;2022-10-16T04:30:09;1.50;;;1.30;;
31182;SDS011;17813;0.000;0.000;2022-10-16T04:32:36;1.30;;;1.20;;
31182;SDS011;17813;0.000;0.000;2022-10-16T04:35:03;1.77;;;1.40;;
31182;SDS011;17813;0.000;0.000;2022-10-16T04:37:30;1.60;;;1.40;;
31182;SDS011;17813;0.000;0.000;2022-10-16T04:39:57;1.63;;;1.37;;
31182;SDS011;17813;0.000;0.000;2022-10-16T04:42:24;1.73;;;1.20;;
31182;SDS011;17813;0.000;0.000;2022-10-16T04:44:52;1.40;;;1.30;;
31182;SDS011;17813;0.000;0.000;2022-10-16T04:47:18;1.67;;;1.40;;
31182;SDS011;17813;0.000;0.000;2022-10-16T04:49:45;2.60;;;1.57;;
31182;SDS011;17813;0.000;0.000;2022-10-16T04:52:12;3.50;;;1.60;;
31182;SDS011;17813;0.000;0.000;2022-10-16T04:54:39;2.13;;;1.90;;
31182;SDS011;17813;0.000;0.000;2022-10-16T04:57:06;3.67;;;1.93;;
31182;SDS011;17813;0.000;0.000;2022-10-16T04:59:32;2.30;;;2.10;;
31182;SDS011;17813;0.000;0.000;2022-10-16T05:02:00;2.30;;;2.10;;
31182;SDS011;17813;0.000;0.000;2022-10-16T05:04:27;3.13;;;2.17;;
31182;SDS011;17813;0.000;0.000;2022-10-16T05:06:54;2.47;;;1.87;;
31182;SDS011;17813;0.000;0.000;2022-10-16T05:09:21;3.87;;;1.70;;
31182;SDS011;17813;0.000;0.000;2022-10-16T05:11:48;4.10;;;1.83;;
31182;SDS011;17813;0.000;0.000;2022-10-16T05:14:15;1.77;;;1.67;;
31182;SDS011;17813;0.000;0.000;2022-10-16T05:16:41;1.70;;;1.60;;
31182;SDS011;17813;0.000;0.000;2022-10-16T05:19:08;2.27;;;2.00;;
31182;SDS011;17813;0.000;0.000;2022-10-16T05:21:36;2.73;;;1.90;;
31182;SDS011;17813;0.000;0.000;2022-10-16T05:24:03;3.90;;;2.17;;
31182;SDS011;17813;0.000;0.000;2022-10-16T05:26:30;3.23;;;2.60;;
31182;SDS011;17813;0.000;0.000;2022-10-16T05:28:57;3.60;;;2.60;;
31182;SDS011;17813;0.000;0.000;2022-10-16T05:31:24;4.27;;;2.63;;
31182;SDS011;17813;0.000;0.000;2022-10-16T05:33:51;3.73;;;2.43;;
31182;SDS011;17813;0.000;0.000;2022-10-16T05:36:18;2.43;;;2.20;;
31182;SDS011;17813;0.000;0.000;2022-10-16T05:38:50;2.97;;;2.10;;
31182;SDS011;17813;0.000;0.000;2022-10-16T05:41:18;2.03;;;1.83;;
31182;SDS011;17813;0.000;0.000;2022-10-16T05:43:51;1.70;;;1.60;;
31182;SDS011;17813;0.000;0.000;2022-10-16T05:46:18;1.73;;;1.63;;
31182;SDS011;17813;0.000;0.000;2022-10-16T05:48:46;1.40;;;1.30;;
31182;SDS011;17813;0.000;0.000;2022-10-16T05:51:14;2.30;;;1.20;;
31182;SDS011;17813;0.000;0.000;2022-10-16T05:53:41;2.10;;;1.70;;
31182;SDS011;17813;0.000;0.000;2022-10-16T05:56:09;1.43;;;1.23;;
31182;SDS011;17813;0.000;0.000;2022-10-16T05:58:38;1.40;;;1.30;;
31182;SDS011;17813;0.000;0.000;2022-10-16T06:01:07;1.50;;;1.33;;
31182;SDS011;17813;0.000;0.000;2022-10-16T06:03:44;1.60;;;1.20;;
31182;SDS011;17813;0.000;0.000;2022-10-16T06:06:12;1.40;;;1.27;;
31182;SDS011;17813;0.000;0.000;2022-10-16T06:08:41;1.40;;;1.30;;
31182;SDS011;17813;0.000;0.000;2022-10-16T06:11:11;2.70;;;1.50;;
31182;SDS011;17813;0.000;0.000;2022-10-16T06:13:40;2.37;;;1.50;;
31182;SDS011;17813;0.000;0.000;2022-10-16T06:16:09;1.50;;;1.13;;
31182;SDS011;17813;0.000;0.000;2022-10-16T06:18:38;1.00;;;1.00;;
31182;SDS011;17813;0.000;0.000;2022-10-16T06:21:09;0.93;;;0.93;;
31182;SDS011;17813;0.000;0.000;2022-10-16T06:23:38;1.30;;;1.20;;
31182;SDS011;17813;0.000;0.000;2022-10-16T06:26:08;1.73;;;1.17;;
31182;SDS011;17813;0.000;0.000;2022-10-16T06:28:43;1.27;;;1.17;;
31182;SDS011;17813;0.000;0.000;2022-10-16T06:31:12;2.37;;;0.97;;
31182;SDS011;17813;0.000;0.000;2022-10-16T06:33:39;0.70;;;0.70;;
31182;SDS011;17813;0.000;0.000;2022-10-16T06:36:08;0.80;;;0.80;;
31182;SDS011;17813;0.000;0.000;2022-10-16T06:38:37;1.00;;;0.90;;
31182;SDS011;17813;0.000;0.000;2022-10-16T06:41:05;1.43;;;1.10;;
31182;SDS011;17813;0.000;0.000;2022-10-16T06:43:33;1.00;;;0.90;;
31182;SDS011;17813;0.000;0.000;2022-10-16T06:46:11;1.83;;;0.90;;
31182;SDS011;17813;0.000;0.000;2022-10-16T06:48:39;1.60;;;1.50;;
31182;SDS011;17813;0.000;0.000;2022-10-16T06:51:11;1.40;;;1.30;;
31182;SDS011;17813;0.000;0.000;2022-10-16T06:53:46;1.20;;;1.10;;
31182;SDS011;17813;0.000;0.000;2022-10-16T06:56:16;1.30;;;1.00;;
31182;SDS011;17813;0.000;0.000;2022-10-16T06:58:48;1.87;;;1.00;;
31182;SDS011;17813;0.000;0.000;2022-10-16T07:01:17;3.17;;;1.30;;
31182;SDS011;17813;0.000;0.000;2022-10-16T07:03:46;1.63;;;0.80;;
31182;SDS011;17813;0.000;0.000;2022-10-16T07:06:15;0.80;;;0.80;;
31182;SDS011;17813;0.000;0.000;2022-10-16T07:08:47;1.20;;;0.80;;
31182;SDS011;17813;0.000;0.000;2022-10-16T07:11:16;0.90;;;0.80;;
31182;SDS011;17813;0.000;0.000;2022-10-16T07:13:45;1.00;;;1.00;;
31182;SDS011;17813;0.000;0.000;2022-10-16T07:16:16;2.50;;;1.17;;
31182;SDS011;17813;0.000;0.000;2022-10-16T07:18:45;0.97;;;0.97;;
31182;SDS011;17813;0.000;0.000;2022-10-16T07:21:18;1.10;;;0.90;;
31182;SDS011;17813;0.000;0.000;2022-10-16T07:23:57;0.83;;;0.83;;
31182;SDS011;17813;0.000;0.000;2022-10-16T07:26:25;1.03;;;0.90;;
31182;SDS011;17813;0.000;0.000;2022-10-16T07:28:52;1.33;;;0.73;;
31182;SDS011;17813;0.000;0.000;2022-10-16T07:31:19;1.00;;;0.90;;
31182;SDS011;17813;0.000;0.000;2022-10-16T07:33:52;1.30;;;1.20;;
31182;SDS011;17813;0.000;0.000;2022-10-16T07:36:20;1.20;;;1.10;;
31182;SDS011;17813;0.000;0.000;2022-10-16T07:38:47;0.87;;;0.80;;
31182;SDS011;17813;0.000;0.000;2022-10-16T07:41:16;0.70;;;0.70;;
31182;SDS011;17813;0.000;0.000;2022-10-16T07:43:46;0.70;;;0.70;;
31182;SDS011;17813;0.000;0.000;2022-10-16T07:46:16;0.80;;;0.80;;
31182;SDS011;17813;0.000;0.000;2022-10-16T07:48:45;1.20;;;1.10;;
31182;SDS011;17813;0.000;0.000;2022-10-16T07:51:17;1.17;;;0.90;;
31182;SDS011;17813;0.000;0.000;2022-10-16T07:53:46;0.97;;;0.87;;
31182;SDS011;17813;0.000;0.000;2022-10-16T07:56:15;0.80;;;0.80;;
31182;SDS011;17813;0.000;0.000;2022-10-16T07:58:43;1.00;;;0.90;;
31182;SDS011;17813;0.000;0.000;2022-10-16T08:01:12;1.00;;;0.87;;
31182;SDS011;17813;0.000;0.000;2022-10-16T08:03:43;0.90;;;0.80;;
31182;SDS011;17813;0.000;0.000;2022-10-16T08:06:11;1.50;;;1.20;;
31182;SDS011;17813;0.000;0.000;2022-10-16T08:08:39;2.00;;;0.87;;
31182;SDS011;17813;0.000;0.000;2022-10-16T08:11:07;1.27;;;0.90;;
31182;SDS011;17813;0.000;0.000;2022-10-16T08:13:35;2.23;;;1.17;;
31182;SDS011;17813;0.000;0.000;2022-10-16T08:16:03;0.90;;;0.83;;
31182;SDS011;17813;0.000;0.000;2022-10-16T08:18:34;1.10;;;1.00;;
31182;SDS011;17813;0.000;0.000;2022-10-16T08:21:03;0.67;;;0.67;;
31182;SDS011;17813;0.000;0.000;2022-10-16T08:23:32;1.03;;;0.90;;
31182;SDS011;17813;0.000;0.000;2022-10-16T08:26:04;0.80;;;0.80;;
31182;SDS011;17813;0.000;0.000;2022-10-16T08:28:32;1.00;;;1.00;;
31182;SDS011;17813;0.000;0.000;2022-10-16T08:31:13;0.77;;;0.77;;
31182;SDS011;17813;0.000;0.000;2022-10-16T08:33:42;1.07;;;1.00;;
31182;SDS011;17813;0.000;0.000;2022-10-16T08:36:12;1.13;;;1.10;;
31182;SDS011;17813;0.000;0.000;2022-10-16T08:38:40;1.33;;;1.20;;
31182;SDS011;17813;0.000;0.000;2022-10-16T08:41:16;2.30;;;1.40;;
31182;SDS011;17813;0.000;0.000;2022-10-16T08:49:14;1.20;;;1.10;;
31182;SDS011;17813;0.000;0.000;2022-10-16T08:51:42;2.50;;;0.97;;
31182;SDS011;17813;0.000;0.000;2022-10-16T08:57:12;1.77;;;1.13;;
31182;SDS011;17813;0.000;0.000;2022-10-16T08:59:44;2.00;;;1.13;;
31182;SDS011;17813;0.000;0.000;2022-10-16T09:02:24;2.33;;;1.00;;
31182;SDS011;17813;0.000;0.000;2022-10-16T09:05:09;1.85;;;1.17;;
31182;SDS011;17813;0.000;0.000;2022-10-16T09:10:58;1.20;;;1.10;;
31182;SDS011;17813;0.000;0.000;2022-10-16T09:13:58;1.63;;;1.20;;
31182;SDS011;17813;0.000;0.000;2022-10-16T09:16:30;2.08;;;1.02;;
31182;SDS011;17813;0.000;0.000;2022-10-16T09:19:22;1.73;;;1.00;;
31182;SDS011;17813;0.000;0.000;2022-10-16T09:22:01;1.17;;;1.17;;
31182;SDS011;17813;0.000;0.000;2022-10-16T09:24:38;2.03;;;1.20;;
31182;SDS011;17813;0.000;0.000;2022-10-16T09:27:07;1.47;;;1.30;;
31182;SDS011;17813;0.000;0.000;2022-10-16T09:29:37;1.33;;;1.23;;
31182;SDS011;17813;0.000;0.000;2022-10-16T09:32:12;2.65;;;1.70;;
31182;SDS011;17813;0.000;0.000;2022-10-16T09:34:45;1.40;;;1.30;;
31182;SDS011;17813;0.000;0.000;2022-10-16T09:37:19;1.20;;;1.10;;
31182;SDS011;17813;0.000;0.000;2022-10-16T09:39:52;2.63;;;1.17;;
31182;SDS011;17813;0.000;0.000;2022-10-16T09:44:56;3.50;;;0.90;;
31182;SDS011;17813;0.000;0.000;2022-10-16T09:47:24;1.00;;;1.00;;
31182;SDS011;17813;0.000;0.000;2022-10-16T09:49:55;1.10;;;1.10;;
31182;SDS011;17813;0.000;0.000;2022-10-16T09:52:25;1.88;;;1.00;;
31182;SDS011;17813;0.000;0.000;2022-10-16T09:54:56;1.95;;;1.30;;
31182;SDS011;17813;0.000;0.000;2022-10-16T09:57:58;1.02;;;1.00;;
31182;SDS011;17813;0.000;0.000;2022-10-16T10:00:24;0.90;;;0.90;;
31182;SDS011;17813;0.000;0.000;2022-10-16T10:02:58;0.95;;;0.93;;
31182;SDS011;17813;0.000;0.000;2022-10-16T10:05:26;0.90;;;0.90;;
31182;SDS011;17813;0.000;0.000;2022-10-16T10:07:56;1.10;;;1.00;;
31182;SDS011;17813;0.000;0.000;2022-10-16T10:10:27;1.25;;;1.15;;
31182;SDS011;17813;0.000;0.000;2022-10-16T10:12:56;1.00;;;1.00;;
31182;SDS011;17813;0.000;0.000;2022-10-16T10:15:23;2.00;;;1.10;;
31182;SDS011;17813;0.000;0.000;2022-10-16T10:17:54;1.92;;;0.93;;
31182;SDS011;17813;0.000;0.000;2022-10-16T10:20:24;0.75;;;0.70;;
31182;SDS011;17813;0.000;0.000;2022-10-16T10:22:54;0.80;;;0.80;;
31182;SDS011;17813;0.000;0.000;2022-10-16T10:33:37;2.17;;;0.90;;
31182;SDS011;17813;0.000;0.000;2022-10-16T10:36:22;1.67;;;1.00;;
31182;SDS011;17813;0.000;0.000;2022-10-16T10:39:00;0.80;;;0.80;;
31182;SDS011;17813;0.000;0.000;2022-10-16T10:50:07;0.70;;;0.70;;
31182;SDS011;17813;0.000;0.000;2022-10-16T10:53:13;2.33;;;0.80;;
31182;SDS011;17813;0.000;0.000;2022-10-16T10:56:10;0.80;;;0.70;;
31182;SDS011;17813;0.000;0.000;2022-10-16T11:07:27;0.98;;;0.85;;
31182;SDS011;17813;0.000;0.000;2022-10-16T11:10:04;1.15;;;0.95;;
31182;SDS011;17813;0.000;0.000;2022-10-16T11:12:41;1.23;;;1.10;;
31182;SDS011;17813;0.000;0.000;2022-10-16T11:20:40;1.33;;;0.82;;
31182;SDS011;17813;0.000;0.000;2022-10-16T11:23:17;0.98;;;0.88;;
31182;SDS011;17813;0.000;0.000;2022-10-16T11:25:51;0.85;;;0.85;;
31182;SDS011;17813;0.000;0.000;2022-10-16T11:28:23;1.05;;;0.95;;
31182;SDS011;17813;0.000;0.000;2022-10-16T11:30:57;0.82;;;0.82;;
31182;SDS011;17813;0.000;0.000;2022-10-16T11:36:50;2.63;;;0.82;;
31182;SDS011;17813;0.000;0.000;2022-10-16T11:39:34;0.75;;;0.73;;
31182;SDS011;17813;0.000;0.000;2022-10-16T11:42:07;0.85;;;0.80;;
31182;SDS011;17813;0.000;0.000;2022-10-16T11:47:35;1.10;;;0.80;;
31182;SDS011;17813;0.000;0.000;2022-10-16T11:53:00;0.93;;;0.80;;
31182;SDS011;17813;0.000;0.000;2022-10-16T11:55:45;0.70;;;0.70;;
31182;SDS011;17813;0.000;0.000;2022-10-16T12:06:33;0.80;;;0.80;;
31182;SDS011;17813;0.000;0.000;2022-10-16T12:09:01;0.63;;;0.63;;
31182;SDS011;17813;0.000;0.000;2022-10-16T12:16:37;1.38;;;0.90;;
31182;SDS011;17813;0.000;0.000;2022-10-16T12:19:16;1.10;;;0.90;;
31182;SDS011;17813;0.000;0.000;2022-10-16T12:21:44;1.42;;;0.90;;
31182;SDS011;17813;0.000;0.000;2022-10-16T12:27:02;0.68;;;0.68;;
31182;SDS011;17813;0.000;0.000;2022-10-16T12:29:33;0.98;;;0.70;;
31182;SDS011;17813;0.000;0.000;2022-10-16T12:32:03;0.70;;;0.70;;
31182;SDS011;17813;0.000;0.000;2022-10-16T12:34:45;1.27;;;0.70;;
31182;SDS011;17813;0.000;0.000;2022-10-16T12:37:25;0.70;;;0.70;;
31182;SDS011;17813;0.000;0.000;2022-10-16T12:39:56;0.82;;;0.73;;
31182;SDS011;17813;0.000;0.000;2022-10-16T12:44:55;0.60;;;0.60;;
31182;SDS011;17813;0.000;0.000;2022-10-16T12:50:25;0.80;;;0.80;;
31182;SDS011;17813;0.000;0.000;2022-10-16T12:53:01;0.65;;;0.65;;
31182;SDS011;17813;0.000;0.000;2022-10-16T12:55:42;0.90;;;0.70;;
31182;SDS011;17813;0.000;0.000;2022-10-16T12:58:57;2.70;;;1.00;;
31182;SDS011;17813;0.000;0.000;2022-10-16T13:28:38;1.05;;;0.82;;
31182;SDS011;17813;0.000;0.000;2022-10-16T13:31:10;0.93;;;0.60;;
31182;SDS011;17813;0.000;0.000;2022-10-16T13:33:41;0.73;;;0.57;;
31182;SDS011;17813;0.000;0.000;2022-10-16T13:36:24;0.40;;;0.40;;
31182;SDS011;17813;0.000;0.000;2022-10-16T13:39:13;0.60;;;0.55;;
31182;SDS011;17813;0.000;0.000;2022-10-16T13:41:46;0.73;;;0.60;;
31182;SDS011;17813;0.000;0.000;2022-10-16T13:44:36;0.73;;;0.57;;
31182;SDS011;17813;0.000;0.000;2022-10-16T13:47:21;0.73;;;0.60;;
31182;SDS011;17813;0.000;0.000;2022-10-16T13:50:03;0.50;;;0.50;;
31182;SDS011;17813;0.000;0.000;2022-10-16T13:52:51;0.52;;;0.52;;
31182;SDS011;17813;0.000;0.000;2022-10-16T13:55:28;0.60;;;0.55;;
31182;SDS011;17813;0.000;0.000;2022-10-16T13:58:12;0.68;;;0.68;;
31182;SDS011;17813;0.000;0.000;2022-10-16T14:00:40;1.23;;;0.77;;
31182;SDS011;17813;0.000;0.000;2022-10-16T14:03:28;1.95;;;0.60;;
31182;SDS011;17813;0.000;0.000;2022-10-16T14:06:00;0.50;;;0.50;;
31182;SDS011;17813;0.000;0.000;2022-10-16T14:08:29;0.47;;;0.47;;
31182;SDS011;17813;0.000;0.000;2022-10-16T14:10:58;0.30;;;0.30;;
31182;SDS011;17813;0.000;0.000;2022-10-16T14:13:47;0.50;;;0.50;;
31182;SDS011;17813;0.000;0.000;2022-10-16T14:16:22;1.20;;;0.80;;
31182;SDS011;17813;0.000;0.000;2022-10-16T14:21:24;0.50;;;0.50;;
31182;SDS011;17813;0.000;0.000;2022-10-16T14:23:52;1.75;;;0.60;;
31182;SDS011;17813;0.000;0.000;2022-10-16T14:26:25;0.40;;;0.40;;
31182;SDS011;17813;0.000;0.000;2022-10-16T14:29:13;0.80;;;0.60;;
31182;SDS011;17813;0.000;0.000;2022-10-16T14:31:53;1.63;;;0.80;;
31182;SDS011;17813;0.000;0.000;2022-10-16T14:34:28;0.80;;;0.80;;
31182;SDS011;17813;0.000;0.000;2022-10-16T14:37:44;0.60;;;0.60;;
31182;SDS011;17813;0.000;0.000;2022-10-16T14:39:49;1.85;;;0.80;;
31182;SDS011;17813;0.000;0.000;2022-10-16T14:42:18;0.60;;;0.60;;
31182;SDS011;17813;0.000;0.000;2022-10-16T14:44:50;1.40;;;1.30;;
31182;SDS011;17813;0.000;0.000;2022-10-16T14:47:23;0.70;;;0.70;;
31182;SDS011;17813;0.000;0.000;2022-10-16T14:49:52;0.43;;;0.43;;
31182;SDS011;17813;0.000;0.000;2022-10-16T14:52:21;0.77;;;0.50;;
31182;SDS011;17813;0.000;0.000;2022-10-16T14:54:49;0.45;;;0.45;;
31182;SDS011;17813;0.000;0.000;2022-10-16T14:57:19;0.55;;;0.45;;
31182;SDS011;17813;0.000;0.000;2022-10-16T14:59:49;0.60;;;0.60;;
31182;SDS011;17813;0.000;0.000;2022-10-16T15:04:59;1.70;;;0.70;;
31182;SDS011;17813;0.000;0.000;2022-10-16T15:07:46;1.13;;;0.90;;
31182;SDS011;17813;0.000;0.000;2022-10-16T15:10:18;1.30;;;1.20;;
31182;SDS011;17813;0.000;0.000;2022-10-16T15:12:46;1.85;;;1.40;;
31182;SDS011;17813;0.000;0.000;2022-10-16T15:17:56;0.70;;;0.70;;
31182;SDS011;17813;0.000;0.000;2022-10-16T15:20:29;0.75;;;0.68;;
31182;SDS011;17813;0.000;0.000;2022-10-16T15:23:00;2.15;;;1.20;;
31182;SDS011;17813;0.000;0.000;2022-10-16T15:25:41;2.53;;;2.00;;
31182;SDS011;17813;0.000;0.000;2022-10-16T15:28:09;2.55;;;2.35;;
31182;SDS011;17813;0.000;0.000;2022-10-16T15:30:38;5.22;;;4.72;;
31182;SDS011;17813;0.000;0.000;2022-10-16T15:33:09;4.28;;;3.58;;
31182;SDS011;17813;0.000;0.000;2022-10-16T15:35:41;1.85;;;1.75;;
31182;SDS011;17813;0.000;0.000;2022-10-16T15:38:15;1.67;;;1.58;;
31182;SDS011;17813;0.000;0.000;2022-10-16T15:40:47;2.23;;;0.70;;
31182;SDS011;17813;0.000;0.000;2022-10-16T15:43:15;1.17;;;0.70;;
31182;SDS011;17813;0.000;0.000;2022-10-16T15:45:43;1.07;;;0.97;;
31182;SDS011;17813;0.000;0.000;2022-10-16T15:48:23;1.67;;;0.90;;
31182;SDS011;17813;0.000;0.000;2022-10-16T15:50:51;0.85;;;0.85;;
31182;SDS011;17813;0.000;0.000;2022-10-16T15:53:18;0.73;;;0.73;;
31182;SDS011;17813;0.000;0.000;2022-10-16T15:55:45;2.37;;;1.40;;
31182;SDS011;17813;0.000;0.000;2022-10-16T15:58:12;1.83;;;1.40;;
31182;SDS011;17813;0.000;0.000;2022-10-16T16:00:39;0.70;;;0.70;;
31182;SDS011;17813;0.000;0.000;2022-10-16T16:03:06;1.20;;;0.80;;
31182;SDS011;17813;0.000;0.000;2022-10-16T16:05:37;1.63;;;1.10;;
31182;SDS011;17813;0.000;0.000;2022-10-16T16:08:06;1.10;;;1.00;;
31182;SDS011;17813;0.000;0.000;2022-10-16T16:10:33;0.90;;;0.90;;
31182;SDS011;17813;0.000;0.000;2022-10-16T16:13:00;1.00;;;1.00;;
31182;SDS011;17813;0.000;0.000;2022-10-16T16:15:27;1.10;;;1.10;;
31182;SDS011;17813;0.000;0.000;2022-10-16T16:17:54;1.23;;;1.13;;
31182;SDS011;17813;0.000;0.000;2022-10-16T16:20:20;1.10;;;1.00;;
31182;SDS011;17813;0.000;0.000;2022-10-16T16:22:47;0.93;;;0.93;;
31182;SDS011;17813;0.000;0.000;2022-10-16T16:25:14;1.73;;;1.30;;
31182;SDS011;17813;0.000;0.000;2022-10-16T16:27:41;1.10;;;1.00;;
31182;SDS011;17813;0.000;0.000;2022-10-16T16:30:10;1.17;;;1.07;;
31182;SDS011;17813;0.000;0.000;2022-10-16T16:32:37;1.23;;;0.93;;
31182;SDS011;17813;0.000;0.000;2022-10-16T16:35:05;1.10;;;1.00;;
31182;SDS011;17813;0.000;0.000;2022-10-16T16:37:31;1.10;;;1.00;;
31182;SDS011;17813;0.000;0.000;2022-10-16T16:40:04;1.80;;;1.07;;
31182;SDS011;17813;0.000;0.000;2022-10-16T16:42:31;1.20;;;1.03;;
31182;SDS011;17813;0.000;0.000;2022-10-16T16:45:02;1.20;;;1.10;;
31182;SDS011;17813;0.000;0.000;2022-10-16T16:47:32;4.63;;;1.30;;
31182;SDS011;17813;0.000;0.000;2022-10-16T16:49:59;3.37;;;1.30;;
31182;SDS011;17813;0.000;0.000;2022-10-16T16:52:31;2.70;;;1.20;;
31182;SDS011;17813;0.000;0.000;2022-10-16T16:54:59;1.77;;;1.30;;
31182;SDS011;17813;0.000;0.000;2022-10-16T16:57:27;2.37;;;1.30;;
31182;SDS011;17813;0.000;0.000;2022-10-16T16:59:54;1.80;;;1.20;;
31182;SDS011;17813;0.000;0.000;2022-10-16T17:02:21;2.27;;;1.30;;
31182;SDS011;17813;0.000;0.000;2022-10-16T17:04:48;3.07;;;1.60;;
31182;SDS011;17813;0.000;0.000;2022-10-16T17:07:16;2.80;;;1.53;;
31182;SDS011;17813;0.000;0.000;2022-10-16T17:09:43;1.87;;;1.57;;
31182;SDS011;17813;0.000;0.000;2022-10-16T17:12:10;2.80;;;1.40;;
31182;SDS011;17813;0.000;0.000;2022-10-16T17:14:37;1.77;;;1.50;;
31182;SDS011;17813;0.000;0.000;2022-10-16T17:17:04;3.73;;;2.00;;
31182;SDS011;17813;0.000;0.000;2022-10-16T17:19:33;2.37;;;1.77;;
31182;SDS011;17813;0.000;0.000;2022-10-16T17:22:00;1.90;;;1.60;;
31182;SDS011;17813;0.000;0.000;2022-10-16T17:24:27;2.70;;;1.50;;
31182;SDS011;17813;0.000;0.000;2022-10-16T17:26:55;3.97;;;1.80;;
31182;SDS011;17813;0.000;0.000;2022-10-16T17:29:22;2.20;;;1.63;;
31182;SDS011;17813;0.000;0.000;2022-10-16T17:31:49;2.53;;;1.50;;